createdAt,value
2022-10-18T00:01:14.669Z,20.06
2022-10-18T00:06:14.041Z,20.08
2022-10-18T00:08:41.359Z,19.97
2022-10-18T00:11:15.404Z,19.97
2022-10-18T00:13:42.325Z,19.91
2022-10-18T00:16:17.024Z,19.79
2022-10-18T00:18:45.149Z,19.86
2022-10-18T00:21:18.851Z,19.93
2022-10-18T00:23:47.930Z,19.97
2022-10-18T00:26:35.451Z,19.86
2022-10-18T00:29:05.611Z,19.76
2022-10-18T00:31:37.909Z,19.86
2022-10-18T00:34:11.298Z,19.94
2022-10-18T00:36:41.221Z,19.87
2022-10-18T00:39:10.893Z,19.99
2022-10-18T00:41:38.148Z,20.12
2022-10-18T00:44:28.030Z,20.02
2022-10-18T00:47:09.361Z,20.05
2022-10-18T00:49:45.799Z,19.96
2022-10-18T00:52:30.126Z,19.70
2022-10-18T00:54:58.331Z,19.84
2022-10-18T00:57:26.037Z,19.85
2022-10-18T00:59:56.009Z,19.84
2022-10-18T01:02:25.359Z,19.77
2022-10-18T01:04:52.261Z,19.88
2022-10-18T01:07:44.359Z,19.91
2022-10-18T01:10:32.348Z,19.78
2022-10-18T01:13:11.011Z,19.83
2022-10-18T01:15:51.977Z,19.71
2022-10-18T01:18:43.475Z,19.65
2022-10-18T01:21:56.153Z,19.45
2022-10-18T01:24:40.984Z,19.32
2022-10-18T01:27:38.827Z,19.46
2022-10-18T01:30:38.158Z,19.48
2022-10-18T01:33:13.097Z,19.41
2022-10-18T01:35:50.439Z,19.41
2022-10-18T01:38:19.908Z,19.26
2022-10-18T01:40:49.884Z,19.29
2022-10-18T01:43:21.938Z,19.21
2022-10-18T01:45:50.121Z,19.12
2022-10-18T01:48:20.844Z,18.99
2022-10-18T01:50:50.295Z,19.09
2022-10-18T01:53:33.588Z,19.06
2022-10-18T01:56:49.083Z,19.07
2022-10-18T01:59:58.032Z,19.07
2022-10-18T02:02:51.090Z,19.07
2022-10-18T02:05:34.260Z,19.06
2022-10-18T02:08:48.069Z,19.14
2022-10-18T02:11:18.895Z,19.09
2022-10-18T02:14:01.233Z,19.13
2022-10-18T02:16:51.178Z,19.08
2022-10-18T02:19:30.450Z,19.12
2022-10-18T02:21:59.174Z,19.13
2022-10-18T02:24:36.024Z,19.10
2022-10-18T02:27:03.256Z,19.10
2022-10-18T02:29:35.141Z,19.03
2022-10-18T02:32:25.544Z,19.00
2022-10-18T02:35:04.430Z,18.77
2022-10-18T02:37:37.563Z,18.91
2022-10-18T02:40:09.565Z,18.92
2022-10-18T02:42:48.719Z,18.94
2022-10-18T02:45:16.200Z,18.85
2022-10-18T02:47:43.471Z,18.76
2022-10-18T02:50:13.173Z,18.69
2022-10-18T02:52:40.383Z,18.82
2022-10-18T02:55:09.743Z,18.58
2022-10-18T02:57:39.185Z,18.48
2022-10-18T03:00:07.402Z,18.56
2022-10-18T03:02:34.290Z,18.59
2022-10-18T03:05:01.222Z,18.66
2022-10-18T03:07:30.462Z,18.53
2022-10-18T03:09:57.521Z,18.56
2022-10-18T03:12:26.913Z,18.35
2022-10-18T03:14:56.751Z,18.43
2022-10-18T03:17:23.586Z,18.43
2022-10-18T03:19:50.485Z,18.33
2022-10-18T03:22:19.725Z,18.42
2022-10-18T03:24:46.714Z,18.31
2022-10-18T03:27:13.634Z,18.36
2022-10-18T03:29:40.731Z,18.29
2022-10-18T03:32:07.604Z,18.24
2022-10-18T03:34:36.976Z,18.34
2022-10-18T03:37:05.486Z,18.18
2022-10-18T03:39:37.077Z,18.17
2022-10-18T03:42:04.071Z,18.21
2022-10-18T03:44:32.992Z,18.27
2022-10-18T03:46:59.833Z,18.14
2022-10-18T03:49:27.701Z,18.17
2022-10-18T03:51:54.552Z,18.01
2022-10-18T03:54:21.394Z,17.89
2022-10-18T03:56:51.253Z,17.97
2022-10-18T03:59:18.142Z,18.19
2022-10-18T04:01:45.003Z,18.14
2022-10-18T04:04:11.920Z,18.13
2022-10-18T04:06:38.763Z,18.09
2022-10-18T04:09:10.204Z,18.22
2022-10-18T04:11:39.899Z,18.19
2022-10-18T04:14:06.803Z,18.19
2022-10-18T04:16:33.744Z,18.15
2022-10-18T04:19:03.126Z,18.14
2022-10-18T04:21:30.247Z,18.13
2022-10-18T04:24:00.109Z,18.27
2022-10-18T04:26:26.948Z,18.24
2022-10-18T04:28:53.868Z,18.06
2022-10-18T04:31:20.741Z,17.96
2022-10-18T04:33:49.716Z,18.06
2022-10-18T04:36:16.543Z,18.10
2022-10-18T04:38:43.425Z,18.10
2022-10-18T04:41:12.748Z,18.13
2022-10-18T04:43:42.720Z,18.10
2022-10-18T04:46:09.764Z,18.06
2022-10-18T04:48:44.071Z,18.10
2022-10-18T04:51:11.074Z,18.06
2022-10-18T04:53:37.907Z,18.03
2022-10-18T04:56:05.042Z,17.84
2022-10-18T04:58:32.549Z,17.85
2022-10-18T05:01:09.461Z,17.96
2022-10-18T05:03:39.430Z,17.82
2022-10-18T05:06:11.292Z,17.76
2022-10-18T05:08:38.508Z,17.74
2022-10-18T05:11:05.643Z,17.78
2022-10-18T05:13:32.514Z,17.89
2022-10-18T05:16:00.254Z,17.94
2022-10-18T05:18:27.348Z,17.97
2022-10-18T05:20:56.767Z,17.93
2022-10-18T05:23:26.810Z,17.96
2022-10-18T05:25:54.225Z,17.91
2022-10-18T05:28:41.103Z,17.92
2022-10-18T05:31:11.708Z,17.95
2022-10-18T05:33:38.592Z,17.88
2022-10-18T05:36:05.664Z,17.74
2022-10-18T05:38:32.796Z,17.62
2022-10-18T05:40:59.923Z,17.54
2022-10-18T05:43:30.098Z,17.40
2022-10-18T05:45:57.049Z,17.37
2022-10-18T05:48:24.158Z,17.50
2022-10-18T05:50:53.232Z,17.35
2022-10-18T05:53:37.143Z,17.50
2022-10-18T05:56:11.686Z,17.36
2022-10-18T05:58:42.062Z,17.46
2022-10-18T06:01:10.205Z,17.62
2022-10-18T06:03:40.227Z,17.70
2022-10-18T06:06:11.674Z,17.66
2022-10-18T06:08:40.414Z,17.58
2022-10-18T06:11:19.742Z,17.35
2022-10-18T06:13:51.350Z,17.30
2022-10-18T06:16:22.884Z,17.20
2022-10-18T06:18:52.715Z,17.16
2022-10-18T06:21:20.631Z,17.09
2022-10-18T06:23:58.998Z,17.11
2022-10-18T06:26:29.537Z,17.19
2022-10-18T06:28:58.953Z,17.30
2022-10-18T06:31:25.878Z,17.39
2022-10-18T06:33:52.838Z,17.49
2022-10-18T06:36:22.232Z,17.43
2022-10-18T06:38:50.076Z,17.43
2022-10-18T06:41:19.159Z,17.23
2022-10-18T06:43:56.807Z,17.23
2022-10-18T06:46:24.795Z,17.24
2022-10-18T06:48:57.665Z,17.44
2022-10-18T06:51:24.508Z,17.49
2022-10-18T06:54:06.281Z,17.38
2022-10-18T06:56:38.699Z,17.47
2022-10-18T06:59:10.309Z,17.41
2022-10-18T07:01:40.362Z,17.30
2022-10-18T07:04:09.580Z,17.36
2022-10-18T07:06:36.450Z,17.42
2022-10-18T07:09:03.888Z,17.40
2022-10-18T07:11:33.212Z,17.35
2022-10-18T07:14:03.213Z,17.31
2022-10-18T07:16:36.088Z,17.31
2022-10-18T07:19:05.280Z,17.39
2022-10-18T07:21:34.491Z,17.27
2022-10-18T07:24:03.886Z,16.98
2022-10-18T07:26:33.337Z,17.23
2022-10-18T07:29:06.620Z,17.30
2022-10-18T07:31:39.066Z,17.38
2022-10-18T07:34:10.909Z,17.00
2022-10-18T07:36:41.186Z,17.02
2022-10-18T07:39:08.228Z,17.21
2022-10-18T07:41:37.543Z,16.96
2022-10-18T07:44:05.139Z,17.33
2022-10-18T07:46:32.069Z,17.36
2022-10-18T07:48:59.655Z,17.59
2022-10-18T07:51:32.747Z,17.75
2022-10-18T07:53:59.890Z,17.75
2022-10-18T07:56:28.772Z,17.84
2022-10-18T07:58:58.194Z,17.81
2022-10-18T08:01:25.574Z,17.78
2022-10-18T08:03:53.544Z,17.83
2022-10-18T08:06:22.615Z,17.84
2022-10-18T08:08:52.306Z,18.08
2022-10-18T08:11:25.508Z,17.86
2022-10-18T08:13:57.411Z,18.11
2022-10-18T08:16:28.287Z,18.13
2022-10-18T08:19:00.313Z,18.17
2022-10-18T08:21:29.613Z,18.29
2022-10-18T08:23:56.502Z,18.51
2022-10-18T08:26:25.996Z,18.58
2022-10-18T08:29:09.845Z,18.61
2022-10-18T08:31:42.925Z,18.68
2022-10-18T08:34:09.733Z,18.58
2022-10-18T08:36:37.449Z,18.84
2022-10-18T08:39:04.341Z,19.06
2022-10-18T08:41:37.460Z,18.87
2022-10-18T08:44:26.926Z,18.84
2022-10-18T08:47:12.633Z,19.10
2022-10-18T08:49:48.496Z,18.84
2022-10-18T08:55:18.606Z,18.73
2022-10-18T08:57:52.484Z,18.76
2022-10-18T09:00:25.455Z,18.87
2022-10-18T09:03:35.909Z,18.84
2022-10-18T09:06:42.638Z,19.00
2022-10-18T09:09:18.329Z,19.34
2022-10-18T09:12:19.043Z,19.12
2022-10-18T09:15:07.960Z,19.29
2022-10-18T09:17:44.667Z,19.40
2022-10-18T09:20:38.207Z,19.30
2022-10-18T09:23:16.348Z,19.22
2022-10-18T09:25:58.332Z,18.96
2022-10-18T09:29:24.683Z,19.02
2022-10-18T09:32:59.321Z,19.31
2022-10-18T09:35:33.989Z,19.18
2022-10-18T09:38:10.651Z,19.29
2022-10-18T09:40:54.903Z,19.32
2022-10-18T09:43:39.438Z,19.44
2022-10-18T09:46:07.893Z,19.56
2022-10-18T09:48:50.332Z,19.61
2022-10-18T09:51:25.803Z,19.67
2022-10-18T09:54:12.519Z,19.40
2022-10-18T09:57:32.788Z,20.09
2022-10-18T10:00:01.753Z,20.99
2022-10-18T10:02:28.738Z,22.37
2022-10-18T10:04:55.811Z,24.56
2022-10-18T10:07:32.532Z,27.56
2022-10-18T10:10:27.340Z,29.75
2022-10-18T10:13:17.058Z,30.44
2022-10-18T10:15:52.344Z,32.06
2022-10-18T10:18:32.435Z,33.95
2022-10-18T10:21:07.618Z,35.31
2022-10-18T10:23:46.109Z,36.67
2022-10-18T10:26:33.866Z,36.69
2022-10-18T10:29:01.217Z,36.27
2022-10-18T10:31:33.574Z,37.75
2022-10-18T10:34:05.290Z,38.85
2022-10-18T10:36:35.772Z,38.98
2022-10-18T10:39:20.570Z,38.17
2022-10-18T10:41:54.139Z,38.20
2022-10-18T10:44:28.694Z,38.80
2022-10-18T10:47:00.814Z,39.60
2022-10-18T10:49:43.961Z,40.06
2022-10-18T10:52:28.587Z,37.42
2022-10-18T10:55:06.121Z,38.32
2022-10-18T10:57:46.583Z,38.60
2022-10-18T11:00:43.196Z,39.56
2022-10-18T11:03:29.243Z,40.43
2022-10-18T11:06:00.835Z,39.68
2022-10-18T11:08:38.377Z,40.06
2022-10-18T11:11:27.769Z,39.23
2022-10-18T11:14:30.553Z,40.17
2022-10-18T11:17:39.433Z,38.07
2022-10-18T11:20:19.401Z,38.16
2022-10-18T11:23:01.156Z,38.92
2022-10-18T11:25:42.185Z,38.32
2022-10-18T11:28:56.522Z,37.81
2022-10-18T11:31:42.186Z,37.69
2022-10-18T11:34:44.702Z,38.33
2022-10-18T11:37:31.106Z,38.59
2022-10-18T11:40:38.040Z,38.74
2022-10-18T11:44:01.105Z,38.73
2022-10-18T11:47:20.651Z,38.47
2022-10-18T11:50:03.371Z,40.32
2022-10-18T11:52:58.666Z,40.65
2022-10-18T11:55:49.592Z,40.81
2022-10-18T11:58:37.793Z,39.48
2022-10-18T12:01:04.586Z,39.42
2022-10-18T12:03:51.177Z,40.02
2022-10-18T12:06:30.754Z,37.83
2022-10-18T12:09:28.151Z,36.75
2022-10-18T12:12:03.082Z,36.13
2022-10-18T12:14:37.467Z,36.60
2022-10-18T12:17:51.604Z,37.09
2022-10-18T12:20:27.557Z,38.48
2022-10-18T12:23:31.787Z,35.50
2022-10-18T12:26:05.970Z,35.13
2022-10-18T12:28:38.807Z,35.91
2022-10-18T12:31:39.639Z,37.28
2022-10-18T12:34:21.353Z,36.39
2022-10-18T12:39:44.178Z,38.22
2022-10-18T12:42:28.811Z,38.13
2022-10-18T12:45:38.319Z,38.28
2022-10-18T12:48:07.335Z,38.73
2022-10-18T12:50:43.520Z,39.13
2022-10-18T12:53:10.359Z,39.24
2022-10-18T12:58:27.209Z,36.67
2022-10-18T13:01:03.841Z,36.81
2022-10-18T13:03:53.544Z,35.98
2022-10-18T13:06:23.640Z,35.34
2022-10-18T13:09:20.163Z,35.41
2022-10-18T13:11:51.787Z,34.58
2022-10-18T13:14:35.487Z,33.10
2022-10-18T13:17:45.022Z,34.97
2022-10-18T13:20:27.258Z,35.15
2022-10-18T13:23:37.121Z,34.95
2022-10-18T13:26:14.699Z,35.58
2022-10-18T13:29:08.771Z,35.17
2022-10-18T13:32:28.792Z,34.71
2022-10-18T13:34:55.850Z,35.46
2022-10-18T13:37:27.111Z,35.28
2022-10-18T13:40:24.656Z,35.12
2022-10-18T13:42:53.848Z,34.95
2022-10-18T13:45:35.767Z,34.06
2022-10-18T13:48:32.889Z,33.75
2022-10-18T13:51:38.734Z,34.11
2022-10-18T13:54:29.863Z,34.69
2022-10-18T13:57:31.727Z,33.94
2022-10-18T14:00:19.662Z,33.21
2022-10-18T14:03:31.730Z,33.21
2022-10-18T14:06:19.291Z,33.73
2022-10-18T14:09:25.485Z,33.19
2022-10-18T14:12:33.789Z,33.45
2022-10-18T14:15:17.698Z,33.17
2022-10-18T14:18:17.496Z,32.14
2022-10-18T14:21:13.347Z,31.61
2022-10-18T14:23:44.817Z,31.41
2022-10-18T14:26:15.479Z,31.57
2022-10-18T14:28:59.049Z,31.47
2022-10-18T14:31:27.633Z,32.21
2022-10-18T14:33:58.265Z,31.40
2022-10-18T14:36:36.141Z,30.76
2022-10-18T14:39:15.422Z,30.27
2022-10-18T14:41:56.442Z,29.97
2022-10-18T14:44:33.332Z,29.51
2022-10-18T14:47:00.258Z,28.88
2022-10-18T14:49:27.501Z,28.64
2022-10-18T14:52:00.361Z,27.82
2022-10-18T14:54:37.704Z,27.26
2022-10-18T14:57:07.010Z,26.18
2022-10-18T15:00:06.143Z,24.63
2022-10-18T15:02:37.716Z,23.93
2022-10-18T15:05:20.517Z,23.48
2022-10-18T15:07:50.596Z,23.16
2022-10-18T15:10:37.751Z,22.84
2022-10-18T15:13:11.137Z,22.54
2022-10-18T15:15:39.719Z,22.87
2022-10-18T15:18:08.526Z,23.09
2022-10-18T15:20:42.584Z,22.66
2022-10-18T15:23:39.032Z,22.13
2022-10-18T15:26:13.130Z,22.07
2022-10-18T15:29:00.401Z,21.82
2022-10-18T15:31:35.225Z,21.65
2022-10-18T15:34:17.850Z,21.36
2022-10-18T15:36:45.847Z,21.19
2022-10-18T15:39:22.411Z,21.04
2022-10-18T15:42:01.562Z,20.77
2022-10-18T15:44:34.770Z,20.50
2022-10-18T15:47:20.158Z,20.43
2022-10-18T15:49:47.082Z,20.33
2022-10-18T15:52:37.870Z,19.97
2022-10-18T15:55:30.244Z,20.00
2022-10-18T15:58:17.888Z,19.94
2022-10-18T16:00:46.385Z,19.94
2022-10-18T16:03:13.957Z,19.73
2022-10-18T16:05:43.925Z,19.81
2022-10-18T16:08:31.898Z,19.63
2022-10-18T16:11:01.940Z,19.61
2022-10-18T16:13:31.365Z,19.38
2022-10-18T16:16:00.812Z,19.33
2022-10-18T16:18:35.346Z,19.07
2022-10-18T16:21:04.261Z,19.04
2022-10-18T16:23:31.071Z,19.11
2022-10-18T16:25:58.306Z,19.21
2022-10-18T16:28:28.583Z,19.20
2022-10-18T16:31:01.266Z,19.05
2022-10-18T16:33:28.803Z,19.03
2022-10-18T16:36:01.390Z,19.05
2022-10-18T16:38:48.845Z,18.96
2022-10-18T16:41:17.440Z,18.89
2022-10-18T16:43:47.737Z,18.81
2022-10-18T16:46:22.638Z,18.59
2022-10-18T16:48:55.890Z,18.67
2022-10-18T16:51:27.340Z,18.66
2022-10-18T16:53:55.205Z,18.62
2022-10-18T16:56:33.826Z,18.44
2022-10-18T16:59:03.989Z,18.28
2022-10-18T17:01:34.421Z,18.50
2022-10-18T17:04:02.188Z,18.49
2022-10-18T17:06:35.349Z,18.24
2022-10-18T17:09:03.437Z,18.37
2022-10-18T17:11:31.156Z,18.30
2022-10-18T17:14:01.330Z,18.15
2022-10-18T17:16:35.428Z,18.18
2022-10-18T17:19:09.736Z,17.93
2022-10-18T17:21:36.898Z,17.87
2022-10-18T17:24:06.405Z,17.95
2022-10-18T17:26:34.720Z,18.08
2022-10-18T17:29:06.502Z,17.99
2022-10-18T17:31:36.182Z,17.96
2022-10-18T17:34:03.942Z,17.81
2022-10-18T17:36:36.217Z,17.90
2022-10-18T17:39:06.320Z,17.89
2022-10-18T17:41:33.735Z,18.07
2022-10-18T17:44:09.187Z,17.90
2022-10-18T17:46:38.930Z,18.02
2022-10-18T17:49:05.981Z,18.02
2022-10-18T17:51:46.896Z,17.87
2022-10-18T17:54:14.276Z,17.74
2022-10-18T17:56:45.577Z,17.75
2022-10-18T17:59:17.994Z,17.66
2022-10-18T18:01:48.389Z,17.50
2022-10-18T18:04:19.162Z,17.43
2022-10-18T18:06:52.975Z,17.33
2022-10-18T18:09:21.092Z,17.48
2022-10-18T18:11:54.784Z,17.56
2022-10-18T18:14:25.685Z,17.62
2022-10-18T18:16:52.896Z,17.58
2022-10-18T18:19:27.183Z,17.43
2022-10-18T18:21:59.128Z,17.58
2022-10-18T18:24:29.238Z,17.61
2022-10-18T18:26:59.153Z,17.77
2022-10-18T18:29:27.916Z,17.97
2022-10-18T18:31:55.173Z,17.73
2022-10-18T18:34:22.634Z,17.50
2022-10-18T18:36:52.048Z,17.82
2022-10-18T18:39:26.522Z,17.72
2022-10-18T18:41:53.766Z,17.95
2022-10-18T18:44:22.353Z,17.96
2022-10-18T18:46:52.264Z,17.85
2022-10-18T18:49:29.337Z,17.80
2022-10-18T18:51:58.673Z,17.60
2022-10-18T18:54:29.829Z,17.73
2022-10-18T18:57:05.427Z,17.83
2022-10-18T18:59:43.915Z,17.72
2022-10-18T19:02:15.707Z,17.60
2022-10-18T19:04:48.131Z,17.51
2022-10-18T19:07:18.348Z,17.61
2022-10-18T19:09:49.169Z,17.73
2022-10-18T19:12:20.422Z,17.69
2022-10-18T19:14:52.982Z,17.69
2022-10-18T19:17:24.389Z,17.82
2022-10-18T19:19:52.238Z,17.65
2022-10-18T19:22:27.969Z,17.50
2022-10-18T19:24:55.351Z,17.56
2022-10-18T19:27:22.292Z,17.67
2022-10-18T19:29:53.780Z,17.50
2022-10-18T19:32:23.182Z,17.91
2022-10-18T19:34:52.354Z,17.80
2022-10-18T19:37:23.893Z,17.79
2022-10-18T19:39:50.949Z,17.79
2022-10-18T19:42:21.126Z,17.54
2022-10-18T19:44:53.541Z,17.62
2022-10-18T19:47:22.970Z,17.62
2022-10-18T19:49:50.379Z,17.58
2022-10-18T19:52:17.476Z,17.40
2022-10-18T19:54:45.260Z,17.52
2022-10-18T19:57:12.362Z,17.35
2022-10-18T19:59:42.537Z,17.32
2022-10-18T20:02:15.314Z,17.38
2022-10-18T20:04:44.834Z,17.47
2022-10-18T20:07:14.661Z,17.56
2022-10-18T20:09:41.820Z,17.59
2022-10-18T20:12:11.401Z,17.67
2022-10-18T20:14:38.623Z,17.62
2022-10-18T20:17:06.313Z,17.73
2022-10-18T20:19:33.505Z,17.55
2022-10-18T20:22:00.785Z,17.63
2022-10-18T20:24:33.832Z,17.40
2022-10-18T20:27:00.973Z,17.34
2022-10-18T20:29:28.227Z,17.40
2022-10-18T20:31:58.077Z,17.56
2022-10-18T20:34:26.287Z,17.73
2022-10-18T20:37:05.475Z,17.61
2022-10-18T20:39:33.636Z,17.63
2022-10-18T20:42:00.694Z,17.60
2022-10-18T20:44:28.082Z,17.59
2022-10-18T20:46:57.318Z,17.70
2022-10-18T20:49:24.429Z,17.63
2022-10-18T20:51:51.523Z,17.62
2022-10-18T20:54:19.095Z,17.36
2022-10-18T20:56:48.312Z,17.19
2022-10-18T20:59:15.881Z,17.28
2022-10-18T21:01:43.479Z,17.37
2022-10-18T21:04:11.158Z,17.39
2022-10-18T21:06:44.706Z,17.32
2022-10-18T21:09:16.075Z,17.35
2022-10-18T21:11:45.954Z,17.37
2022-10-18T21:14:16.285Z,17.42
2022-10-18T21:16:46.787Z,17.23
2022-10-18T21:19:24.407Z,17.35
2022-10-18T21:22:00.328Z,17.38
2022-10-18T21:24:30.588Z,17.48
2022-10-18T21:26:57.730Z,17.44
2022-10-18T21:29:24.997Z,17.49
2022-10-18T21:31:59.492Z,17.61
2022-10-18T21:34:29.704Z,17.35
2022-10-18T21:36:56.663Z,17.47
2022-10-18T21:41:51.563Z,17.30
2022-10-18T21:44:23.701Z,17.08
2022-10-18T21:46:50.858Z,17.01
2022-10-18T21:49:23.482Z,17.16
2022-10-18T21:51:52.944Z,17.25
2022-10-18T21:54:20.426Z,17.16
2022-10-18T21:56:47.604Z,17.32
2022-10-18T21:59:19.804Z,17.19
2022-10-18T22:01:47.023Z,17.17
2022-10-18T22:04:21.663Z,16.93
2022-10-18T22:06:49.507Z,16.85
2022-10-18T22:09:17.076Z,16.69
2022-10-18T22:11:49.757Z,16.67
2022-10-18T22:14:25.289Z,16.61
2022-10-18T22:16:52.626Z,16.53
2022-10-18T22:19:20.133Z,16.36
2022-10-18T22:21:47.636Z,16.65
2022-10-18T22:24:14.728Z,16.69
2022-10-18T22:26:44.054Z,16.41
2022-10-18T22:29:20.320Z,16.51
2022-10-18T22:31:52.573Z,16.52
2022-10-18T22:34:24.016Z,16.55
2022-10-18T22:36:51.202Z,16.55
2022-10-18T22:39:18.228Z,16.51
2022-10-18T22:41:47.740Z,16.64
2022-10-18T22:44:15.094Z,16.69
2022-10-18T22:46:44.791Z,16.63
2022-10-18T22:49:12.174Z,16.52
2022-10-18T22:51:39.322Z,16.58
2022-10-18T22:54:08.787Z,16.45
2022-10-18T22:56:35.857Z,16.51
2022-10-18T22:59:05.338Z,16.56
2022-10-18T23:01:34.746Z,16.66
2022-10-18T23:04:02.025Z,16.69
2022-10-18T23:06:34.259Z,16.76
2022-10-18T23:09:10.019Z,16.64
2022-10-18T23:11:37.596Z,16.69
2022-10-18T23:14:06.810Z,16.82
2022-10-18T23:16:38.858Z,16.71
2022-10-18T23:19:05.900Z,16.54
2022-10-18T23:21:35.211Z,16.50
2022-10-18T23:24:05.262Z,16.33
2022-10-18T23:26:34.391Z,16.10
2022-10-18T23:29:01.389Z,15.98
2022-10-18T23:31:33.382Z,16.03
2022-10-18T23:34:05.186Z,16.15
2022-10-18T23:36:36.335Z,16.02
2022-10-18T23:39:06.467Z,16.09
2022-10-18T23:41:33.395Z,16.17
2022-10-18T23:44:02.683Z,16.24
2022-10-18T23:46:29.574Z,16.36
2022-10-18T23:48:56.414Z,16.35
2022-10-18T23:51:27.939Z,16.46
2022-10-18T23:53:57.783Z,16.52
2022-10-18T23:56:24.714Z,16.55
2022-10-18T23:58:53.859Z,16.45
